KOLS

Nogales International Airport

Nogales, Arizona, USA
METAR KOLS 181454Z AUTO 05008KT 10SM CLR 06/M07 A3020 RMK AO2 SLP204 T00611067 53010
Observed Flight Rules
Jan-18 @ 14:54 UTC (41 minutes ago) Visual Flight Rules
Wind Visibility Clouds
50° at 8 knots 10 miles
  • Clear skies
Temperatures Readings
Current 6°C / 43°F
Dewpoint -7°C / 19°F
Humidity 39%
Altimeter 30.2" Hg
Pressure 1020.4 hPa
Elevation 1184
METAR KOLS 181454Z AUTO 05008KT 10SM CLR 06/M07 A3020 RMK AO2 SLP204 T00611067 53010
Observed Flight Rules
Jan-18 @ 14:54 UTC
(41 minutes ago)
VFR
Wind Visibility
50° at 8 knots 10 miles
Clouds
  • Clear skies
Temperature Dewpoint
6°C / 43°F -7°C / 19°F
Humidity Altimeter Pressure
39% 30.2" Hg 1020.4 hPa